createdAt,value
2018-11-22T00:00:33.358Z,0.13
2018-11-22T00:01:33.364Z,0.12
2018-11-22T00:02:33.373Z,0.19
2018-11-22T00:03:33.343Z,0.17
2018-11-22T00:04:33.338Z,0.17
2018-11-22T00:05:33.356Z,0.17
2018-11-22T00:06:33.317Z,0.20
2018-11-22T00:07:33.288Z,0.16
2018-11-22T00:08:33.277Z,0.15
2018-11-22T00:09:33.274Z,-0.01
2018-11-22T00:10:33.311Z,0.01
2018-11-22T00:11:33.240Z,-0.05
2018-11-22T00:12:33.234Z,-0.03
2018-11-22T00:13:33.232Z,-0.05
2018-11-22T00:14:33.217Z,-0.05
2018-11-22T00:15:33.249Z,-0.09
2018-11-22T00:16:33.206Z,-0.14
2018-11-22T00:17:33.180Z,-0.09
2018-11-22T00:18:33.198Z,-0.02
2018-11-22T00:19:33.153Z,-0.02
2018-11-22T00:20:33.201Z,-0.01
2018-11-22T00:21:33.138Z,0.02
2018-11-22T00:22:33.129Z,-0.05
2018-11-22T00:23:33.114Z,-0.01
2018-11-22T00:24:33.099Z,0.10
2018-11-22T00:25:33.130Z,0.02
2018-11-22T00:26:33.089Z,0.08
2018-11-22T00:27:33.088Z,0.05
2018-11-22T00:28:33.062Z,-0.03
2018-11-22T00:29:33.044Z,0.10
2018-11-22T00:30:33.040Z,0.05
2018-11-22T00:31:33.066Z,0.08
2018-11-22T00:32:33.024Z,0.08
2018-11-22T00:33:33.016Z,0.15
2018-11-22T00:34:33.007Z,0.15
2018-11-22T00:35:33.028Z,0.13
2018-11-22T00:36:32.978Z,0.17
2018-11-22T00:37:32.962Z,0.17
2018-11-22T00:38:32.963Z,0.19
2018-11-22T00:39:32.951Z,0.31
2018-11-22T00:40:32.981Z,0.26
2018-11-22T00:41:32.943Z,0.41
2018-11-22T00:42:32.916Z,0.33
2018-11-22T00:43:32.940Z,0.35
2018-11-22T00:44:32.886Z,0.28
2018-11-22T00:45:32.891Z,0.35
2018-11-22T00:46:32.880Z,0.38
2018-11-22T00:47:32.871Z,0.33
2018-11-22T00:48:32.888Z,0.28
2018-11-22T00:49:32.841Z,0.16
2018-11-22T00:50:32.833Z,0.20
2018-11-22T00:51:32.814Z,0.23
2018-11-22T00:52:32.810Z,0.13
2018-11-22T00:53:32.842Z,-0.01
2018-11-22T00:54:32.795Z,0.05
2018-11-22T00:55:32.770Z,-0.03
2018-11-22T00:56:32.764Z,0.08
2018-11-22T00:57:32.755Z,-0.03
2018-11-22T00:58:32.744Z,0.10
2018-11-22T00:59:32.778Z,0.01
2018-11-22T01:00:32.726Z,0.15
2018-11-22T01:01:32.706Z,0.10
2018-11-22T01:02:32.696Z,0.08
2018-11-22T01:03:32.699Z,0.07
2018-11-22T01:04:32.706Z,0.12
2018-11-22T01:05:32.665Z,0.12
2018-11-22T01:06:32.655Z,0.07
2018-11-22T01:07:32.646Z,0.04
2018-11-22T01:08:32.633Z,0.08
2018-11-22T01:09:32.660Z,0.10
2018-11-22T01:10:32.626Z,0.08
2018-11-22T01:11:32.598Z,0.12
2018-11-22T01:12:32.587Z,0.13
2018-11-22T01:13:32.578Z,0.02
2018-11-22T01:14:32.598Z,0.12
2018-11-22T01:15:32.575Z,0.05
2018-11-22T01:16:32.551Z,0.12
2018-11-22T01:17:32.537Z,0.02
2018-11-22T01:18:32.523Z,0.10
2018-11-22T01:19:32.545Z,0.10
2018-11-22T01:20:32.519Z,0.10
2018-11-22T01:21:32.491Z,0.05
2018-11-22T01:22:32.531Z,-0.01
2018-11-22T01:23:32.477Z,0.04
2018-11-22T01:24:32.468Z,0.07
2018-11-22T01:25:32.449Z,0.07
2018-11-22T01:26:32.437Z,0.10
2018-11-22T01:27:32.462Z,0.04
2018-11-22T01:28:32.459Z,0.07
2018-11-22T01:29:32.402Z,0.16
2018-11-22T01:30:32.403Z,0.13
2018-11-22T01:31:32.388Z,0.15
2018-11-22T01:32:32.375Z,0.10
2018-11-22T01:33:32.411Z,0.15
2018-11-22T01:34:32.364Z,0.15
2018-11-22T01:35:32.338Z,0.15
2018-11-22T01:36:32.320Z,0.04
2018-11-22T01:37:32.326Z,0.04
2018-11-22T01:38:32.343Z,-0.01
2018-11-22T01:39:32.337Z,0.01
2018-11-22T01:40:32.286Z,0.12
2018-11-22T01:41:32.267Z,0.12
2018-11-22T01:42:32.261Z,0.04
2018-11-22T01:43:32.248Z,0.01
2018-11-22T01:44:32.286Z,0.01
2018-11-22T01:45:32.235Z,0.05
2018-11-22T01:46:32.383Z,0.04
2018-11-22T01:47:32.222Z,0.07
2018-11-22T01:48:32.203Z,0.05
2018-11-22T01:49:32.216Z,0.01
2018-11-22T01:50:32.214Z,0.16
2018-11-22T01:51:32.171Z,0.16
2018-11-22T01:52:32.148Z,0.19
2018-11-22T01:53:32.172Z,0.17
2018-11-22T01:54:32.140Z,0.16
2018-11-22T01:55:32.164Z,0.19
2018-11-22T01:56:32.115Z,0.19
2018-11-22T01:57:32.131Z,0.15
2018-11-22T01:58:32.087Z,0.20
2018-11-22T01:59:32.076Z,0.20
2018-11-22T02:00:32.108Z,0.17
2018-11-22T02:01:32.088Z,0.12
2018-11-22T02:02:32.062Z,0.13
2018-11-22T02:03:32.033Z,0.15
2018-11-22T02:04:32.027Z,0.07
2018-11-22T02:05:32.016Z,0.08
2018-11-22T02:06:32.009Z,0.05
2018-11-22T02:07:32.000Z,0.01
2018-11-22T02:08:31.979Z,-0.01
2018-11-22T02:09:31.973Z,-0.01
2018-11-22T02:10:32.005Z,0.02
2018-11-22T02:11:32.002Z,0.01
2018-11-22T02:12:31.940Z,0.10
2018-11-22T02:13:31.931Z,0.02
2018-11-22T02:14:31.922Z,0.02
2018-11-22T02:15:31.907Z,0.05
2018-11-22T02:16:31.929Z,0.02
2018-11-22T02:17:31.901Z,0.07
2018-11-22T02:18:31.887Z,0.12
2018-11-22T02:19:31.851Z,0.13
2018-11-22T02:20:31.851Z,0.19
2018-11-22T02:21:31.892Z,0.19
2018-11-22T02:22:31.822Z,0.16
2018-11-22T02:23:31.819Z,0.15
2018-11-22T02:24:31.802Z,0.17
2018-11-22T02:25:31.827Z,0.16
2018-11-22T02:26:31.788Z,0.17
2018-11-22T02:27:31.778Z,0.22
2018-11-22T02:28:31.761Z,0.20
2018-11-22T02:29:31.801Z,0.17
2018-11-22T02:30:31.791Z,0.16
2018-11-22T02:31:31.766Z,0.17
2018-11-22T02:32:31.720Z,0.20
2018-11-22T02:33:31.716Z,0.17
2018-11-22T02:34:31.729Z,0.10
2018-11-22T02:35:31.723Z,0.19
2018-11-22T02:36:31.681Z,0.13
2018-11-22T02:37:31.672Z,0.12
2018-11-22T02:38:31.651Z,0.20
2018-11-22T02:39:31.641Z,0.16
2018-11-22T02:40:31.666Z,0.19
2018-11-22T02:41:31.634Z,0.20
2018-11-22T02:42:31.655Z,0.17
2018-11-22T02:43:31.596Z,0.26
2018-11-22T02:44:31.606Z,0.19
2018-11-22T02:45:31.580Z,0.25
2018-11-22T02:46:31.569Z,0.26
2018-11-22T02:47:31.605Z,0.19
2018-11-22T02:48:31.561Z,0.26
2018-11-22T02:49:31.535Z,0.17
2018-11-22T02:50:31.520Z,0.17
2018-11-22T02:51:31.515Z,0.22
2018-11-22T02:52:31.534Z,0.13
2018-11-22T02:53:31.540Z,0.16
2018-11-22T02:54:31.489Z,0.25
2018-11-22T02:55:31.470Z,0.22
2018-11-22T02:56:31.457Z,0.19
2018-11-22T02:57:31.476Z,0.17
2018-11-22T02:58:31.434Z,0.23
2018-11-22T02:59:31.430Z,0.12
2018-11-22T03:00:31.407Z,0.22
2018-11-22T03:01:31.420Z,0.19
2018-11-22T03:02:31.422Z,0.19
2018-11-22T03:03:31.386Z,0.17
2018-11-22T03:04:31.370Z,0.16
2018-11-22T03:05:31.396Z,0.19
2018-11-22T03:06:31.350Z,0.16
2018-11-22T03:07:31.347Z,0.16
2018-11-22T03:08:31.351Z,0.17
2018-11-22T03:09:31.318Z,0.16
2018-11-22T03:10:31.340Z,0.19
2018-11-22T03:11:31.308Z,0.20
2018-11-22T03:12:31.283Z,0.19
2018-11-22T03:13:31.312Z,0.23
2018-11-22T03:14:31.269Z,0.15
2018-11-22T03:15:31.264Z,0.17
2018-11-22T03:16:31.244Z,0.17
2018-11-22T03:17:31.240Z,0.19
2018-11-22T03:18:31.277Z,0.16
2018-11-22T03:19:31.226Z,0.19
2018-11-22T03:20:31.212Z,0.22
2018-11-22T03:21:31.192Z,0.16
2018-11-22T03:22:31.186Z,0.16
2018-11-22T03:23:31.221Z,0.16
2018-11-22T03:24:31.165Z,0.19
2018-11-22T03:25:31.151Z,0.30
2018-11-22T03:26:31.186Z,0.33
2018-11-22T03:27:31.125Z,0.28
2018-11-22T03:28:31.112Z,0.33
2018-11-22T03:29:31.106Z,0.35
2018-11-22T03:30:31.104Z,0.30
2018-11-22T03:31:31.116Z,0.34
2018-11-22T03:32:31.084Z,0.33
2018-11-22T03:33:31.070Z,0.28
2018-11-22T03:34:31.050Z,0.34
2018-11-22T03:35:31.038Z,0.28
2018-11-22T03:36:31.073Z,0.38
2018-11-22T03:37:31.022Z,0.41
2018-11-22T03:38:31.053Z,0.31
2018-11-22T03:39:31.000Z,0.38
2018-11-22T03:40:30.995Z,0.40
2018-11-22T03:41:31.024Z,0.45
2018-11-22T03:42:30.995Z,0.45
2018-11-22T03:43:30.955Z,0.45
2018-11-22T03:44:30.953Z,0.48
2018-11-22T03:45:30.924Z,0.51
2018-11-22T03:46:30.960Z,0.49
2018-11-22T03:47:30.915Z,0.49
2018-11-22T03:48:30.902Z,0.44
2018-11-22T03:49:30.947Z,0.51
2018-11-22T03:50:30.887Z,0.48
2018-11-22T03:51:30.863Z,0.48
2018-11-22T03:52:30.879Z,0.59
2018-11-22T03:53:30.848Z,0.51
2018-11-22T03:54:30.868Z,0.45
2018-11-22T03:55:30.835Z,0.41
2018-11-22T03:56:30.829Z,0.49
2018-11-22T03:57:30.809Z,0.48
2018-11-22T03:58:30.834Z,0.48
2018-11-22T03:59:30.791Z,0.51
2018-11-22T04:00:30.772Z,0.52
2018-11-22T04:01:30.785Z,0.56
2018-11-22T04:02:30.744Z,0.48
2018-11-22T04:03:30.775Z,0.48
2018-11-22T04:04:30.763Z,0.45
2018-11-22T04:05:30.728Z,0.43
2018-11-22T04:06:30.706Z,0.53
2018-11-22T04:07:30.712Z,0.48
2018-11-22T04:08:30.726Z,0.56
2018-11-22T04:09:30.695Z,0.49
2018-11-22T04:10:30.717Z,0.52
2018-11-22T04:11:30.651Z,0.56
2018-11-22T04:12:30.666Z,0.59
2018-11-22T04:13:30.661Z,0.51
2018-11-22T04:14:30.633Z,0.59
2018-11-22T04:15:30.671Z,0.51
2018-11-22T04:16:30.614Z,0.48
2018-11-22T04:17:30.597Z,0.49
2018-11-22T04:18:30.589Z,0.45
2018-11-22T04:19:30.589Z,0.48
2018-11-22T04:20:30.621Z,0.45
2018-11-22T04:21:30.569Z,0.51
2018-11-22T04:22:30.540Z,0.41
2018-11-22T04:23:30.523Z,0.45
2018-11-22T04:24:30.524Z,0.53
2018-11-22T04:25:30.533Z,0.45
2018-11-22T04:26:30.526Z,0.51
2018-11-22T04:27:30.487Z,0.43
2018-11-22T04:28:30.476Z,0.45
2018-11-22T04:29:30.456Z,0.48
2018-11-22T04:30:30.510Z,0.52
2018-11-22T04:31:30.448Z,0.53
2018-11-22T04:32:30.467Z,0.56
2018-11-22T04:33:30.433Z,0.56
2018-11-22T04:34:30.406Z,0.56
2018-11-22T04:35:30.452Z,0.48
2018-11-22T04:36:30.397Z,0.57
2018-11-22T04:37:30.371Z,0.53
2018-11-22T04:38:30.368Z,0.48
2018-11-22T04:39:30.350Z,0.51
2018-11-22T04:40:30.378Z,0.53
2018-11-22T04:41:30.346Z,0.53
2018-11-22T04:42:30.349Z,0.53
2018-11-22T04:43:30.315Z,0.57
2018-11-22T04:44:30.312Z,0.63
2018-11-22T04:45:30.330Z,0.70
2018-11-22T04:46:30.322Z,0.59
2018-11-22T04:47:30.272Z,0.64
2018-11-22T04:48:30.252Z,0.62
2018-11-22T04:49:30.259Z,0.63
2018-11-22T04:50:30.258Z,0.64
2018-11-22T04:51:30.285Z,0.59
2018-11-22T04:52:30.215Z,0.64
2018-11-22T04:53:30.200Z,0.63
2018-11-22T04:54:30.192Z,0.67
2018-11-22T04:55:30.192Z,0.63
2018-11-22T04:56:30.214Z,0.62
2018-11-22T04:57:30.161Z,0.59
2018-11-22T04:58:30.869Z,0.63
2018-11-22T04:59:30.134Z,0.64
2018-11-22T05:00:30.122Z,0.72
2018-11-22T05:01:30.166Z,0.70
2018-11-22T05:02:30.152Z,0.70
2018-11-22T05:03:30.095Z,0.75
2018-11-22T05:04:30.712Z,0.68
2018-11-22T05:05:30.067Z,0.71
2018-11-22T05:06:30.100Z,0.72
2018-11-22T05:07:30.066Z,0.75
2018-11-22T05:08:30.048Z,0.77
2018-11-22T05:09:30.027Z,0.78
2018-11-22T05:10:30.024Z,0.80
2018-11-22T05:11:30.012Z,0.81
2018-11-22T05:12:30.011Z,0.86
2018-11-22T05:13:30.002Z,0.81
2018-11-22T05:14:29.988Z,0.78
2018-11-22T05:15:30.005Z,0.84
2018-11-22T05:16:30.011Z,0.82
2018-11-22T05:17:29.957Z,0.80
2018-11-22T05:18:29.931Z,0.77
2018-11-22T05:19:29.925Z,0.77
2018-11-22T05:20:29.925Z,0.80
2018-11-22T05:21:29.936Z,0.88
2018-11-22T05:22:29.916Z,0.82
2018-11-22T05:23:30.482Z,0.80
2018-11-22T05:24:29.888Z,0.75
2018-11-22T05:25:29.913Z,0.77
2018-11-22T05:26:29.888Z,0.74
2018-11-22T05:27:29.841Z,0.71
2018-11-22T05:28:29.839Z,0.72
2018-11-22T05:29:29.862Z,0.75
2018-11-22T05:30:29.812Z,0.74
2018-11-22T05:31:29.808Z,0.72
2018-11-22T05:32:33.245Z,0.78
2018-11-22T05:33:30.777Z,0.75
2018-11-22T05:34:29.805Z,0.74
2018-11-22T05:35:29.771Z,0.78
2018-11-22T05:36:29.752Z,0.75
2018-11-22T05:37:29.771Z,0.77
2018-11-22T05:38:29.733Z,0.82
2018-11-22T05:39:29.748Z,0.78
2018-11-22T05:40:30.335Z,0.82
2018-11-22T05:41:29.697Z,0.88
2018-11-22T05:42:29.685Z,0.86
2018-11-22T05:43:29.690Z,0.90
2018-11-22T05:44:29.697Z,0.88
2018-11-22T05:45:29.695Z,0.88
2018-11-22T05:46:29.812Z,0.88
2018-11-22T05:47:29.628Z,0.80
2018-11-22T05:48:29.631Z,0.88
2018-11-22T05:49:29.631Z,0.93
2018-11-22T05:50:30.382Z,0.82
2018-11-22T05:51:29.713Z,0.84
2018-11-22T05:52:29.577Z,0.90
2018-11-22T05:53:29.566Z,0.92
2018-11-22T05:54:29.557Z,0.92
2018-11-22T05:55:29.549Z,0.93
2018-11-22T05:56:29.526Z,0.88
2018-11-22T05:57:29.513Z,0.84
2018-11-22T05:58:29.502Z,0.95
2018-11-22T05:59:29.497Z,0.89
2018-11-22T06:00:29.514Z,0.89
2018-11-22T06:01:29.521Z,0.90
2018-11-22T06:02:29.468Z,0.84
2018-11-22T06:03:29.459Z,0.82
2018-11-22T06:04:29.447Z,0.86
2018-11-22T06:05:29.438Z,0.89
2018-11-22T06:06:29.458Z,0.89
2018-11-22T06:07:29.424Z,0.92
2018-11-22T06:08:29.409Z,0.92
2018-11-22T06:09:29.411Z,0.93
2018-11-22T06:10:29.374Z,0.90
2018-11-22T06:11:29.425Z,0.86
2018-11-22T06:12:29.364Z,0.92
2018-11-22T06:13:29.364Z,0.84
2018-11-22T06:14:29.342Z,0.84
2018-11-22T06:15:29.322Z,0.92
2018-11-22T06:16:29.358Z,0.95
2018-11-22T06:17:29.352Z,0.95
2018-11-22T06:18:29.336Z,0.84
2018-11-22T06:19:29.305Z,0.86
2018-11-22T06:20:29.277Z,0.92
2018-11-22T06:21:29.280Z,0.86
2018-11-22T06:22:29.262Z,0.84
2018-11-22T06:23:29.283Z,0.88
2018-11-22T06:24:29.241Z,0.90
2018-11-22T06:25:29.216Z,0.86
2018-11-22T06:26:29.205Z,0.93
2018-11-22T06:27:29.211Z,0.89
2018-11-22T06:28:29.229Z,0.86
2018-11-22T06:29:29.184Z,0.81
2018-11-22T06:30:29.161Z,0.81
2018-11-22T06:31:29.160Z,0.78
2018-11-22T06:32:29.140Z,0.77
2018-11-22T06:33:29.180Z,0.78
2018-11-22T06:34:29.156Z,0.75
2018-11-22T06:35:29.124Z,0.72
2018-11-22T06:36:29.119Z,0.75
2018-11-22T06:37:29.098Z,0.77
2018-11-22T06:38:29.112Z,0.78
2018-11-22T06:39:29.090Z,0.75
2018-11-22T06:40:29.063Z,0.77
2018-11-22T06:41:29.043Z,0.75
2018-11-22T06:42:29.035Z,0.72
2018-11-22T06:43:29.034Z,0.75
2018-11-22T06:44:29.026Z,0.75
2018-11-22T06:45:29.000Z,0.74
2018-11-22T06:46:29.012Z,0.75
2018-11-22T06:47:29.002Z,0.77
2018-11-22T06:48:28.981Z,0.72
2018-11-22T06:49:28.995Z,0.71
2018-11-22T06:50:28.951Z,0.77
2018-11-22T06:51:28.948Z,0.74
2018-11-22T06:52:28.939Z,0.80
2018-11-22T06:53:28.930Z,0.80
2018-11-22T06:54:28.961Z,0.81
2018-11-22T06:55:28.909Z,0.82
2018-11-22T06:56:28.882Z,0.75
2018-11-22T06:57:28.882Z,0.88
2018-11-22T06:58:28.871Z,0.82
2018-11-22T06:59:28.898Z,0.84
2018-11-22T07:00:28.863Z,0.89
2018-11-22T07:01:28.830Z,0.92
2018-11-22T07:02:28.818Z,0.92
2018-11-22T07:03:28.819Z,0.90
2018-11-22T07:04:28.829Z,0.92
2018-11-22T07:05:28.844Z,0.96
2018-11-22T07:06:28.799Z,0.95
2018-11-22T07:07:28.776Z,1.02
2018-11-22T07:08:28.787Z,0.96
2018-11-22T07:09:28.829Z,0.93
2018-11-22T07:10:28.747Z,0.96
2018-11-22T07:11:28.750Z,1.06
2018-11-22T07:12:28.707Z,1.02
2018-11-22T07:13:28.709Z,0.96
2018-11-22T07:14:28.720Z,1.11
2018-11-22T07:15:28.692Z,1.02
2018-11-22T07:16:28.685Z,1.04
2018-11-22T07:17:28.717Z,1.04
2018-11-22T07:18:28.645Z,1.07
2018-11-22T07:19:28.658Z,1.02
2018-11-22T07:20:28.655Z,1.04
2018-11-22T07:21:28.630Z,1.13
2018-11-22T07:22:28.648Z,1.17
2018-11-22T07:23:28.608Z,1.20
2018-11-22T07:24:28.596Z,1.16
2018-11-22T07:25:28.580Z,1.20
2018-11-22T07:26:28.616Z,1.28
2018-11-22T07:27:28.563Z,1.17
2018-11-22T07:28:28.592Z,1.21
2018-11-22T07:29:28.529Z,1.21
2018-11-22T07:30:28.531Z,1.29
2018-11-22T07:31:28.513Z,1.32
2018-11-22T07:32:28.494Z,1.28
2018-11-22T07:33:28.518Z,1.34
2018-11-22T07:34:28.475Z,1.35
2018-11-22T07:35:28.463Z,1.43
2018-11-22T07:36:28.457Z,1.46
2018-11-22T07:37:28.442Z,1.46
2018-11-22T07:38:28.468Z,1.49
2018-11-22T07:39:28.423Z,1.49
2018-11-22T07:40:28.410Z,1.54
2018-11-22T07:41:28.398Z,1.50
2018-11-22T07:42:28.382Z,1.52
2018-11-22T07:43:28.406Z,1.61
2018-11-22T07:44:28.381Z,1.65
2018-11-22T07:45:28.357Z,1.65
2018-11-22T07:46:28.345Z,1.74
2018-11-22T07:47:28.333Z,1.75
2018-11-22T07:48:28.363Z,1.71
2018-11-22T07:49:28.350Z,1.68
2018-11-22T07:50:28.296Z,1.72
2018-11-22T07:51:28.300Z,1.79
2018-11-22T07:52:28.301Z,1.72
2018-11-22T07:53:28.266Z,1.74
2018-11-22T07:54:28.298Z,1.79
2018-11-22T07:55:28.247Z,1.72
2018-11-22T07:56:28.234Z,1.74
2018-11-22T07:57:28.230Z,1.79
2018-11-22T07:58:28.233Z,1.79
2018-11-22T07:59:28.214Z,1.79
2018-11-22T08:00:28.235Z,1.93
2018-11-22T08:01:28.176Z,2.02
2018-11-22T08:02:28.189Z,2.09
2018-11-22T08:03:28.174Z,2.08
2018-11-22T08:04:28.144Z,2.14
2018-11-22T08:05:28.144Z,2.19
2018-11-22T08:06:28.168Z,2.20
2018-11-22T08:07:28.115Z,2.19
2018-11-22T08:08:28.103Z,2.27
2018-11-22T08:09:28.092Z,2.14
2018-11-22T08:10:28.079Z,2.12
2018-11-22T08:11:28.116Z,2.00
2018-11-22T08:12:28.112Z,2.07
2018-11-22T08:13:28.051Z,2.18
2018-11-22T08:14:28.049Z,2.01
2018-11-22T08:15:28.022Z,2.09
2018-11-22T08:16:28.015Z,2.09
2018-11-22T08:17:28.053Z,2.09
2018-11-22T08:18:27.993Z,2.15
2018-11-22T08:19:27.978Z,2.01
2018-11-22T08:20:27.982Z,1.98
2018-11-22T08:21:27.967Z,1.95
2018-11-22T08:22:27.986Z,1.93
2018-11-22T08:23:27.935Z,1.85
2018-11-22T08:24:27.924Z,1.93
2018-11-22T08:25:27.952Z,1.88
2018-11-22T08:26:27.931Z,1.82
2018-11-22T08:27:27.934Z,1.79
2018-11-22T08:28:27.921Z,1.72
2018-11-22T08:29:27.875Z,1.72
2018-11-22T08:30:27.866Z,1.67
2018-11-22T08:31:27.855Z,1.74
2018-11-22T08:32:27.863Z,1.72
2018-11-22T08:33:27.871Z,1.64
2018-11-22T08:34:27.818Z,1.61
2018-11-22T08:35:27.820Z,1.60
2018-11-22T08:36:27.794Z,1.60
2018-11-22T08:37:27.784Z,1.56
2018-11-22T08:38:27.818Z,1.54
2018-11-22T08:39:27.764Z,1.49
2018-11-22T08:40:27.755Z,1.49
2018-11-22T08:41:27.747Z,1.54
2018-11-22T08:42:27.730Z,1.49
2018-11-22T08:43:27.761Z,1.46
2018-11-22T08:44:27.758Z,1.44
2018-11-22T08:45:27.713Z,1.42
2018-11-22T08:46:27.689Z,1.39
2018-11-22T08:47:27.676Z,1.38
2018-11-22T08:48:27.678Z,1.31
2018-11-22T08:49:27.687Z,1.35
2018-11-22T08:50:27.684Z,1.29
2018-11-22T08:51:27.662Z,1.31
2018-11-22T08:52:27.616Z,1.34
2018-11-22T08:53:27.616Z,1.35
2018-11-22T08:54:27.637Z,1.24
2018-11-22T08:55:27.600Z,1.18
2018-11-22T08:56:27.576Z,1.11
2018-11-22T08:57:27.577Z,1.06
2018-11-22T08:58:27.580Z,1.16
2018-11-22T08:59:27.580Z,1.18
2018-11-22T09:00:27.550Z,1.14
2018-11-22T09:01:27.530Z,1.13
2018-11-22T09:02:27.519Z,1.11
2018-11-22T09:03:27.504Z,1.08
2018-11-22T09:05:28.506Z,1.16
2018-11-22T09:06:27.467Z,1.11
2018-11-22T09:07:27.455Z,1.10
2018-11-22T09:08:27.453Z,1.18
2018-11-22T09:09:27.482Z,1.43
2018-11-22T09:10:27.471Z,1.52
2018-11-22T09:11:27.428Z,1.75
2018-11-22T09:12:27.449Z,1.85
2018-11-22T09:13:27.387Z,2.11
2018-11-22T09:14:27.382Z,2.48
2018-11-22T09:15:31.336Z,3.26
2018-11-22T09:16:27.371Z,4.13
2018-11-22T09:17:27.370Z,4.79
2018-11-22T09:18:27.352Z,5.23
2018-11-22T09:19:27.339Z,5.41
2018-11-22T09:20:27.355Z,5.78
2018-11-22T09:21:27.316Z,6.11
2018-11-22T09:22:27.294Z,6.20
2018-11-22T09:23:27.351Z,6.25
2018-11-22T09:24:27.294Z,6.10
2018-11-22T09:25:27.273Z,6.21
2018-11-22T09:26:27.305Z,6.27
2018-11-22T09:27:27.239Z,6.24
2018-11-22T09:28:27.414Z,6.13
2018-11-22T09:29:27.224Z,6.21
2018-11-22T09:30:27.221Z,6.30
2018-11-22T09:31:27.239Z,6.24
2018-11-22T09:32:27.226Z,6.32
2018-11-22T09:33:27.190Z,6.50
2018-11-22T09:34:27.162Z,6.58
2018-11-22T09:35:27.226Z,6.68
2018-11-22T09:36:27.181Z,6.32
2018-11-22T09:37:27.124Z,6.45
2018-11-22T09:38:27.115Z,6.46
2018-11-22T09:39:27.116Z,6.46
2018-11-22T09:40:27.094Z,6.55
2018-11-22T09:41:27.139Z,6.82
2018-11-22T09:42:27.185Z,6.93
2018-11-22T09:43:27.080Z,7.00
2018-11-22T09:44:27.057Z,7.12
2018-11-22T09:45:27.058Z,7.08
2018-11-22T09:46:27.236Z,7.08
2018-11-22T09:47:27.029Z,7.00
2018-11-22T09:48:27.050Z,6.89
2018-11-22T09:49:27.000Z,6.93
2018-11-22T09:50:26.982Z,7.15
2018-11-22T09:51:26.983Z,7.15
2018-11-22T09:52:26.974Z,7.27
2018-11-22T09:53:26.969Z,7.15
2018-11-22T09:54:26.959Z,7.01
2018-11-22T09:55:26.935Z,6.89
2018-11-22T09:56:26.968Z,6.82
2018-11-22T09:57:26.926Z,7.00
2018-11-22T09:58:26.947Z,6.99
2018-11-22T09:59:26.905Z,6.76
2018-11-22T10:00:26.889Z,6.83
2018-11-22T10:01:26.871Z,6.90
2018-11-22T10:02:26.870Z,6.82
2018-11-22T10:03:26.886Z,6.79
2018-11-22T10:04:26.839Z,6.96
2018-11-22T10:05:26.839Z,6.75
2018-11-22T10:06:26.827Z,6.75
2018-11-22T10:07:26.821Z,6.72
2018-11-22T10:08:26.863Z,6.68
2018-11-22T10:09:26.826Z,6.69
2018-11-22T10:10:26.775Z,6.81
2018-11-22T10:11:26.766Z,6.79
2018-11-22T10:12:26.794Z,6.82
2018-11-22T10:13:26.746Z,6.54
2018-11-22T10:14:26.770Z,6.08
2018-11-22T10:15:26.757Z,5.88
2018-11-22T10:16:26.720Z,6.11
2018-11-22T10:17:26.699Z,5.96
2018-11-22T10:18:26.723Z,5.69
2018-11-22T10:19:26.686Z,5.88
2018-11-22T10:20:26.707Z,6.17
2018-11-22T10:21:26.666Z,5.77
2018-11-22T10:22:26.670Z,5.90
2018-11-22T10:23:26.662Z,6.20
2018-11-22T10:24:26.771Z,6.28
2018-11-22T10:25:26.604Z,6.50
2018-11-22T10:26:26.603Z,6.54
2018-11-22T10:27:26.595Z,6.73
2018-11-22T10:28:26.591Z,6.86
2018-11-22T10:29:26.692Z,6.82
2018-11-22T10:30:26.616Z,6.81
2018-11-22T10:31:26.624Z,6.55
2018-11-22T10:32:26.590Z,6.71
2018-11-22T10:33:26.519Z,7.16
2018-11-22T10:34:26.521Z,6.57
2018-11-22T10:35:26.635Z,5.99
2018-11-22T10:36:26.497Z,5.80
2018-11-22T10:37:26.512Z,6.45
2018-11-22T10:38:26.536Z,6.81
2018-11-22T10:39:26.482Z,6.96
2018-11-22T10:40:26.448Z,7.23
2018-11-22T10:41:26.445Z,7.60
2018-11-22T10:42:26.519Z,7.44
2018-11-22T10:43:26.430Z,7.37
2018-11-22T10:44:26.401Z,7.16
2018-11-22T10:45:26.399Z,7.66
2018-11-22T10:46:26.380Z,7.58
2018-11-22T10:47:26.418Z,7.50
2018-11-22T10:48:26.364Z,7.54
2018-11-22T10:49:26.350Z,7.47
2018-11-22T10:50:26.342Z,7.48
2018-11-22T10:51:26.341Z,7.45
2018-11-22T10:52:26.357Z,7.55
2018-11-22T10:53:26.351Z,7.48
2018-11-22T10:54:26.310Z,7.60
2018-11-22T10:55:26.281Z,7.69
2018-11-22T10:56:26.284Z,8.04
2018-11-22T10:57:26.289Z,8.02
2018-11-22T10:58:26.291Z,8.25
2018-11-22T10:59:26.287Z,8.50
2018-11-22T11:00:26.244Z,8.21
2018-11-22T11:01:26.224Z,7.94
2018-11-22T11:02:26.214Z,7.71
2018-11-22T11:03:26.290Z,7.70
2018-11-22T11:04:26.260Z,7.82
2018-11-22T11:05:26.200Z,7.81
2018-11-22T11:06:26.171Z,7.69
2018-11-22T11:07:27.197Z,7.77
2018-11-22T11:08:26.150Z,7.74
2018-11-22T11:09:26.162Z,7.79
2018-11-22T11:10:26.134Z,7.71
2018-11-22T11:11:26.145Z,7.77
2018-11-22T11:12:26.112Z,7.77
2018-11-22T11:13:26.082Z,7.69
2018-11-22T11:14:26.130Z,8.04
2018-11-22T11:15:26.070Z,8.13
2018-11-22T11:16:26.093Z,8.10
2018-11-22T11:17:26.044Z,7.86
2018-11-22T11:18:26.047Z,7.76
2018-11-22T11:19:26.043Z,7.71
2018-11-22T11:20:26.017Z,7.79
2018-11-22T11:21:26.037Z,7.76
2018-11-22T11:22:25.986Z,7.81
2018-11-22T11:23:25.971Z,7.82
2018-11-22T11:24:26.538Z,7.96
2018-11-22T11:25:25.972Z,7.88
2018-11-22T11:26:25.985Z,7.86
2018-11-22T11:27:25.922Z,7.76
2018-11-22T11:28:25.917Z,7.44
2018-11-22T11:29:25.927Z,6.86
2018-11-22T11:30:25.918Z,6.73
2018-11-22T11:31:25.923Z,6.71
2018-11-22T11:32:25.891Z,6.75
2018-11-22T11:33:25.861Z,6.43
2018-11-22T11:34:25.844Z,6.25
2018-11-22T11:35:25.857Z,6.35
2018-11-22T11:36:25.871Z,5.96
2018-11-22T11:37:25.850Z,6.03
2018-11-22T11:38:25.823Z,6.58
2018-11-22T11:39:25.804Z,6.50
2018-11-22T11:40:25.785Z,6.17
2018-11-22T11:41:25.813Z,6.48
2018-11-22T11:42:25.810Z,7.12
2018-11-22T11:43:25.762Z,6.97
2018-11-22T11:44:25.762Z,7.14
2018-11-22T11:45:25.748Z,6.93
2018-11-22T11:46:25.765Z,6.57
2018-11-22T11:47:25.717Z,6.14
2018-11-22T11:48:25.701Z,6.35
2018-11-22T11:49:25.683Z,6.08
2018-11-22T11:50:25.676Z,6.03
2018-11-22T11:51:25.701Z,6.06
2018-11-22T11:52:25.703Z,6.28
2018-11-22T11:53:40.993Z,6.89
2018-11-22T11:54:26.641Z,6.90
2018-11-22T11:55:25.625Z,6.86
2018-11-22T11:56:25.624Z,6.97
2018-11-22T11:57:25.638Z,7.66
2018-11-22T11:58:25.588Z,7.85
2018-11-22T11:59:25.576Z,8.12
2018-11-22T12:00:25.576Z,8.25
2018-11-22T12:01:25.573Z,8.29
2018-11-22T12:02:25.594Z,8.36
2018-11-22T12:03:25.532Z,8.28
2018-11-22T12:04:25.547Z,8.36
2018-11-22T12:05:25.569Z,8.42
2018-11-22T12:06:25.511Z,8.49
2018-11-22T12:07:25.527Z,7.71
2018-11-22T12:08:25.488Z,7.18
2018-11-22T12:09:25.479Z,7.11
2018-11-22T12:10:25.450Z,6.73
2018-11-22T12:11:25.461Z,7.23
2018-11-22T12:12:25.474Z,7.77
2018-11-22T12:13:25.450Z,7.74
2018-11-22T12:14:25.411Z,7.96
2018-11-22T12:15:25.396Z,7.99
2018-11-22T12:16:25.403Z,8.29
2018-11-22T12:17:25.418Z,7.84
2018-11-22T12:18:25.412Z,7.36
2018-11-22T12:19:25.388Z,7.12
2018-11-22T12:20:25.352Z,7.37
2018-11-22T12:21:25.337Z,8.04
2018-11-22T12:22:25.322Z,8.21
2018-11-22T12:23:25.362Z,7.54
2018-11-22T12:24:25.309Z,7.71
2018-11-22T12:25:25.389Z,8.17
2018-11-22T12:26:25.292Z,8.46
2018-11-22T12:27:25.280Z,8.57
2018-11-22T12:28:25.313Z,8.60
2018-11-22T12:29:25.255Z,8.65
2018-11-22T12:30:25.237Z,8.89
2018-11-22T12:31:25.224Z,8.65
2018-11-22T12:32:25.214Z,8.34
2018-11-22T12:33:25.245Z,8.43
2018-11-22T12:34:25.218Z,8.20
2018-11-22T12:35:25.279Z,8.21
2018-11-22T12:36:25.166Z,8.02
2018-11-22T12:37:25.162Z,8.06
2018-11-22T12:38:25.181Z,8.13
2018-11-22T12:39:25.147Z,8.25
2018-11-22T12:40:25.130Z,8.42
2018-11-22T12:41:25.163Z,8.21
2018-11-22T12:42:25.116Z,8.29
2018-11-22T12:43:25.097Z,8.32
2018-11-22T12:44:25.086Z,8.39
2018-11-22T12:45:25.096Z,8.34
2018-11-22T12:46:25.106Z,8.61
2018-11-22T12:47:25.067Z,8.80
2018-11-22T12:48:25.055Z,9.15
2018-11-22T12:49:25.024Z,8.96
2018-11-22T12:50:25.019Z,8.93
2018-11-22T12:51:25.035Z,8.85
2018-11-22T12:52:25.007Z,8.34
2018-11-22T12:53:24.994Z,7.85
2018-11-22T12:54:24.973Z,7.37
2018-11-22T12:55:24.967Z,7.11
2018-11-22T12:56:24.951Z,7.05
2018-11-22T12:57:24.971Z,6.86
2018-11-22T12:58:24.940Z,6.78
2018-11-22T12:59:24.920Z,7.09
2018-11-22T13:00:24.903Z,6.99
2018-11-22T13:01:24.896Z,6.79
2018-11-22T13:02:24.945Z,6.71
2018-11-22T13:03:24.880Z,6.57
2018-11-22T13:04:24.902Z,6.50
2018-11-22T13:05:24.850Z,6.35
2018-11-22T13:06:24.840Z,6.25
2018-11-22T13:07:24.862Z,6.30
2018-11-22T13:08:24.819Z,6.16
2018-11-22T13:09:24.819Z,6.10
2018-11-22T13:10:24.794Z,6.08
2018-11-22T13:11:24.796Z,6.19
2018-11-22T13:12:24.803Z,6.02
2018-11-22T13:13:24.803Z,6.10
2018-11-22T13:14:24.749Z,6.08
2018-11-22T13:15:24.759Z,6.06
2018-11-22T13:16:24.771Z,5.84
2018-11-22T13:17:24.723Z,5.75
2018-11-22T13:18:24.702Z,5.87